Brookley Field, Alabama
Current Conditions -  °F | °C
As of 8:53 PM on Friday 21 Nov 2014 (Local Time) from KBFM Reporting Station
Clear Clear  
Wind Chill:   Ceiling: Unl
Heat Index:   Visibility: 7mi
Dew Point:   Wind: 0mph
Humidity: 97%   Direction: NA
Pressure: 30.32"   Gusts: NA
Location:  30.641°N, 88.065°W
Report Text: KBFM 220253Z 00000KT 7SM CLR 09/09 A3032 RMK AO2 SLP266 T00940089 57001
Loading
Personal Weather Stations






























Interactive Weather Map New forecast layout! Learn more

10-Day Weather Forecast

Advertisements
Track Severe Weather on mobile